sensor_id;sensor_type;location;lat;lon;timestamp;pressure;altitude;pressure_sealevel;temperature;humidity
74578;BME280;63173;49.086;33.418;2023-02-04T00:00:18;100139.94;;;-0.45;98.07
74578;BME280;63173;49.086;33.418;2023-02-04T00:02:43;100148.69;;;-0.38;98.24
74578;BME280;63173;49.086;33.418;2023-02-04T00:05:10;100144.44;;;-0.45;98.88
74578;BME280;63173;49.086;33.418;2023-02-04T00:07:36;100154.97;;;-0.50;99.07
74578;BME280;63173;49.086;33.418;2023-02-04T00:10:02;100153.84;;;-0.61;99.44
74578;BME280;63173;49.086;33.418;2023-02-04T00:12:28;100157.38;;;-0.67;99.68
74578;BME280;63173;49.086;33.418;2023-02-04T00:14:54;100159.38;;;-0.62;99.08
74578;BME280;63173;49.086;33.418;2023-02-04T00:17:19;100161.03;;;-0.61;98.69
74578;BME280;63173;49.086;33.418;2023-02-04T00:19:44;100154.75;;;-0.49;98.50
74578;BME280;63173;49.086;33.418;2023-02-04T00:22:10;100154.63;;;-0.60;98.77
74578;BME280;63173;49.086;33.418;2023-02-04T00:24:36;100154.25;;;-0.64;99.11
74578;BME280;63173;49.086;33.418;2023-02-04T00:27:03;100148.28;;;-0.59;99.34
74578;BME280;63173;49.086;33.418;2023-02-04T00:29:29;100153.41;;;-0.58;98.31
74578;BME280;63173;49.086;33.418;2023-02-04T00:31:55;100152.81;;;-0.60;98.85
74578;BME280;63173;49.086;33.418;2023-02-04T00:34:20;100146.47;;;-0.65;98.21
74578;BME280;63173;49.086;33.418;2023-02-04T00:36:46;100147.91;;;-0.63;98.95
74578;BME280;63173;49.086;33.418;2023-02-04T00:39:11;100151.56;;;-0.57;99.02
74578;BME280;63173;49.086;33.418;2023-02-04T00:41:37;100153.88;;;-0.67;98.14
74578;BME280;63173;49.086;33.418;2023-02-04T00:44:03;100157.78;;;-0.70;98.53
74578;BME280;63173;49.086;33.418;2023-02-04T00:46:28;100156.34;;;-0.66;97.87
74578;BME280;63173;49.086;33.418;2023-02-04T00:48:53;100154.09;;;-0.69;98.29
74578;BME280;63173;49.086;33.418;2023-02-04T00:51:19;100150.19;;;-0.66;97.43
74578;BME280;63173;49.086;33.418;2023-02-04T00:53:44;100149.78;;;-0.70;98.38
74578;BME280;63173;49.086;33.418;2023-02-04T00:56:10;100148.13;;;-0.64;97.42
74578;BME280;63173;49.086;33.418;2023-02-04T00:58:36;100146.88;;;-0.62;97.57
74578;BME280;63173;49.086;33.418;2023-02-04T01:01:02;100152.19;;;-0.62;97.73
74578;BME280;63173;49.086;33.418;2023-02-04T01:03:27;100151.38;;;-0.62;97.57
74578;BME280;63173;49.086;33.418;2023-02-04T01:05:52;100150.25;;;-0.73;98.22
74578;BME280;63173;49.086;33.418;2023-02-04T01:08:18;100150.09;;;-0.78;97.03
74578;BME280;63173;49.086;33.418;2023-02-04T01:10:43;100155.19;;;-0.76;98.10
74578;BME280;63173;49.086;33.418;2023-02-04T01:13:09;100149.03;;;-0.77;98.10
74578;BME280;63173;49.086;33.418;2023-02-04T01:15:35;100145.28;;;-0.69;98.03
74578;BME280;63173;49.086;33.418;2023-02-04T01:18:00;100147.19;;;-0.76;97.71
74578;BME280;63173;49.086;33.418;2023-02-04T01:20:26;100143.16;;;-0.85;98.18
74578;BME280;63173;49.086;33.418;2023-02-04T01:22:51;100147.84;;;-0.81;98.28
74578;BME280;63173;49.086;33.418;2023-02-04T01:25:17;100142.47;;;-0.74;98.23
74578;BME280;63173;49.086;33.418;2023-02-04T01:27:43;100146.03;;;-0.87;97.75
74578;BME280;63173;49.086;33.418;2023-02-04T01:30:10;100149.47;;;-0.80;96.95
74578;BME280;63173;49.086;33.418;2023-02-04T01:32:36;100142.34;;;-0.86;97.73
74578;BME280;63173;49.086;33.418;2023-02-04T01:35:02;100147.84;;;-0.81;98.00
74578;BME280;63173;49.086;33.418;2023-02-04T01:37:27;100135.38;;;-0.87;96.45
74578;BME280;63173;49.086;33.418;2023-02-04T01:39:53;100140.88;;;-0.82;96.39
74578;BME280;63173;49.086;33.418;2023-02-04T01:42:18;100133.53;;;-0.86;96.63
74578;BME280;63173;49.086;33.418;2023-02-04T01:44:44;100132.13;;;-0.89;97.18
74578;BME280;63173;49.086;33.418;2023-02-04T01:47:10;100138.78;;;-1.05;96.92
74578;BME280;63173;49.086;33.418;2023-02-04T01:49:35;100138.94;;;-1.00;96.07
74578;BME280;63173;49.086;33.418;2023-02-04T01:52:02;100148.25;;;-1.09;96.97
74578;BME280;63173;49.086;33.418;2023-02-04T01:54:27;100142.84;;;-1.02;97.15
74578;BME280;63173;49.086;33.418;2023-02-04T01:56:53;100152.53;;;-1.08;97.10
74578;BME280;63173;49.086;33.418;2023-02-04T01:59:20;100150.31;;;-1.11;97.43
74578;BME280;63173;49.086;33.418;2023-02-04T02:01:50;100155.34;;;-1.27;96.39
74578;BME280;63173;49.086;33.418;2023-02-04T02:04:28;100161.06;;;-1.30;95.95
74578;BME280;63173;49.086;33.418;2023-02-04T02:06:59;100165.38;;;-1.29;96.92
74578;BME280;63173;49.086;33.418;2023-02-04T02:09:28;100160.88;;;-1.29;97.17
74578;BME280;63173;49.086;33.418;2023-02-04T02:11:55;100164.31;;;-1.22;95.68
74578;BME280;63173;49.086;33.418;2023-02-04T02:14:20;100166.91;;;-1.09;96.70
74578;BME280;63173;49.086;33.418;2023-02-04T02:16:46;100170.88;;;-1.24;96.31
74578;BME280;63173;49.086;33.418;2023-02-04T02:19:16;100167.38;;;-1.18;96.46
74578;BME280;63173;49.086;33.418;2023-02-04T02:22:04;100167.97;;;-1.16;96.13
74578;BME280;63173;49.086;33.418;2023-02-04T02:24:33;100172.69;;;-1.18;95.87
74578;BME280;63173;49.086;33.418;2023-02-04T02:27:01;100173.13;;;-1.21;96.53
74578;BME280;63173;49.086;33.418;2023-02-04T02:29:27;100174.59;;;-1.25;96.23
74578;BME280;63173;49.086;33.418;2023-02-04T02:31:54;100174.19;;;-1.29;95.71
74578;BME280;63173;49.086;33.418;2023-02-04T02:34:25;100172.56;;;-1.30;95.72
74578;BME280;63173;49.086;33.418;2023-02-04T02:36:51;100186.66;;;-1.23;95.88
74578;BME280;63173;49.086;33.418;2023-02-04T02:39:16;100188.09;;;-1.27;96.05
74578;BME280;63173;49.086;33.418;2023-02-04T02:41:42;100185.88;;;-1.30;95.93
74578;BME280;63173;49.086;33.418;2023-02-04T02:44:09;100191.63;;;-1.33;96.68
74578;BME280;63173;49.086;33.418;2023-02-04T02:46:35;100186.47;;;-1.21;96.80
74578;BME280;63173;49.086;33.418;2023-02-04T02:49:01;100187.31;;;-1.27;96.98
74578;BME280;63173;49.086;33.418;2023-02-04T02:51:27;100188.31;;;-1.28;95.86
74578;BME280;63173;49.086;33.418;2023-02-04T02:53:52;100190.56;;;-1.25;95.25
74578;BME280;63173;49.086;33.418;2023-02-04T02:56:18;100185.84;;;-1.23;95.68
74578;BME280;63173;49.086;33.418;2023-02-04T02:58:44;100194.03;;;-1.18;95.86
74578;BME280;63173;49.086;33.418;2023-02-04T03:01:10;100195.19;;;-1.08;95.33
74578;BME280;63173;49.086;33.418;2023-02-04T03:03:40;100188.47;;;-1.17;95.41
74578;BME280;63173;49.086;33.418;2023-02-04T03:06:19;100188.06;;;-1.14;94.41
74578;BME280;63173;49.086;33.418;2023-02-04T03:08:49;100189.28;;;-1.16;95.79
74578;BME280;63173;49.086;33.418;2023-02-04T03:11:15;100190.59;;;-1.32;94.33
74578;BME280;63173;49.086;33.418;2023-02-04T03:13:41;100186.84;;;-1.18;94.62
74578;BME280;63173;49.086;33.418;2023-02-04T03:16:07;100184.88;;;-1.35;95.05
74578;BME280;63173;49.086;33.418;2023-02-04T03:18:33;100179.13;;;-1.32;94.27
74578;BME280;63173;49.086;33.418;2023-02-04T03:21:00;100184.84;;;-1.29;94.56
74578;BME280;63173;49.086;33.418;2023-02-04T03:23:26;100178.72;;;-1.29;93.83
74578;BME280;63173;49.086;33.418;2023-02-04T03:25:52;100185.44;;;-1.27;94.04
74578;BME280;63173;49.086;33.418;2023-02-04T03:28:18;100184.41;;;-1.26;94.93
74578;BME280;63173;49.086;33.418;2023-02-04T03:30:43;100185.66;;;-1.28;95.39
74578;BME280;63173;49.086;33.418;2023-02-04T03:33:14;100184.25;;;-1.31;94.45
74578;BME280;63173;49.086;33.418;2023-02-04T03:35:39;100182.59;;;-1.32;93.74
74578;BME280;63173;49.086;33.418;2023-02-04T03:38:05;100183.22;;;-1.30;93.62
74578;BME280;63173;49.086;33.418;2023-02-04T03:40:30;100182.19;;;-1.29;93.39
74578;BME280;63173;49.086;33.418;2023-02-04T03:42:56;100192.81;;;-1.22;94.13
74578;BME280;63173;49.086;33.418;2023-02-04T03:45:21;100188.72;;;-1.25;94.14
74578;BME280;63173;49.086;33.418;2023-02-04T03:47:46;100184.41;;;-1.26;94.17
74578;BME280;63173;49.086;33.418;2023-02-04T03:50:12;100181.91;;;-1.21;92.97
74578;BME280;63173;49.086;33.418;2023-02-04T03:52:38;100184.03;;;-1.29;93.25
74578;BME280;63173;49.086;33.418;2023-02-04T03:55:04;100180.53;;;-1.30;93.83
74578;BME280;63173;49.086;33.418;2023-02-04T03:57:29;100179.25;;;-1.14;94.53
74578;BME280;63173;49.086;33.418;2023-02-04T03:59:55;100183.72;;;-1.08;94.01
74578;BME280;63173;49.086;33.418;2023-02-04T04:02:20;100190.06;;;-1.09;93.40
74578;BME280;63173;49.086;33.418;2023-02-04T04:04:46;100194.41;;;-1.15;94.21
74578;BME280;63173;49.086;33.418;2023-02-04T04:07:11;100199.66;;;-1.02;93.88
74578;BME280;63173;49.086;33.418;2023-02-04T04:09:36;100199.72;;;-1.15;92.54
74578;BME280;63173;49.086;33.418;2023-02-04T04:12:02;100202.41;;;-1.15;93.00
74578;BME280;63173;49.086;33.418;2023-02-04T04:14:28;100203.44;;;-1.16;94.07
74578;BME280;63173;49.086;33.418;2023-02-04T04:16:54;100211.84;;;-1.19;93.21
74578;BME280;63173;49.086;33.418;2023-02-04T04:19:19;100203.38;;;-1.09;93.14
74578;BME280;63173;49.086;33.418;2023-02-04T04:21:44;100211.38;;;-1.09;93.62
74578;BME280;63173;49.086;33.418;2023-02-04T04:24:10;100206.28;;;-1.11;93.96
74578;BME280;63173;49.086;33.418;2023-02-04T04:26:35;100212.97;;;-1.02;93.72
74578;BME280;63173;49.086;33.418;2023-02-04T04:29:01;100210.09;;;-1.00;93.12
74578;BME280;63173;49.086;33.418;2023-02-04T04:31:26;100208.13;;;-1.11;92.69
74578;BME280;63173;49.086;33.418;2023-02-04T04:33:51;100214.03;;;-1.03;93.29
74578;BME280;63173;49.086;33.418;2023-02-04T04:36:17;100214.75;;;-1.27;93.45
74578;BME280;63173;49.086;33.418;2023-02-04T04:38:42;100226.22;;;-1.20;93.68
74578;BME280;63173;49.086;33.418;2023-02-04T04:41:08;100227.66;;;-1.24;92.82
74578;BME280;63173;49.086;33.418;2023-02-04T04:43:33;100226.84;;;-1.24;94.06
74578;BME280;63173;49.086;33.418;2023-02-04T04:45:58;100232.38;;;-1.26;93.92
74578;BME280;63173;49.086;33.418;2023-02-04T04:48:24;100230.94;;;-1.22;93.99
74578;BME280;63173;49.086;33.418;2023-02-04T04:50:49;100225.41;;;-1.27;92.81
74578;BME280;63173;49.086;33.418;2023-02-04T04:53:15;100232.22;;;-1.37;92.76
74578;BME280;63173;49.086;33.418;2023-02-04T04:55:40;100230.78;;;-1.33;93.84
74578;BME280;63173;49.086;33.418;2023-02-04T04:58:07;100234.50;;;-1.41;93.31
74578;BME280;63173;49.086;33.418;2023-02-04T05:00:33;100239.81;;;-1.41;94.36
74578;BME280;63173;49.086;33.418;2023-02-04T05:02:58;100244.75;;;-1.51;92.69
74578;BME280;63173;49.086;33.418;2023-02-04T05:05:23;100240.69;;;-1.60;92.96
74578;BME280;63173;49.086;33.418;2023-02-04T05:07:49;100245.88;;;-1.78;94.10
74578;BME280;63173;49.086;33.418;2023-02-04T05:10:15;100246.06;;;-1.79;93.27
74578;BME280;63173;49.086;33.418;2023-02-04T05:12:40;100246.91;;;-1.72;94.14
74578;BME280;63173;49.086;33.418;2023-02-04T05:15:06;100252.63;;;-1.69;93.35
74578;BME280;63173;49.086;33.418;2023-02-04T05:17:32;100259.78;;;-1.63;93.72
74578;BME280;63173;49.086;33.418;2023-02-04T05:19:57;100259.97;;;-1.58;94.24
74578;BME280;63173;49.086;33.418;2023-02-04T05:22:23;100264.25;;;-1.57;93.81
74578;BME280;63173;49.086;33.418;2023-02-04T05:24:48;100265.47;;;-1.53;92.61
74578;BME280;63173;49.086;33.418;2023-02-04T05:27:14;100259.16;;;-1.65;93.30
74578;BME280;63173;49.086;33.418;2023-02-04T05:29:39;100268.16;;;-1.66;93.05
74578;BME280;63173;49.086;33.418;2023-02-04T05:32:04;100271.03;;;-1.67;94.19
74578;BME280;63173;49.086;33.418;2023-02-04T05:34:30;100273.72;;;-1.67;93.33
74578;BME280;63173;49.086;33.418;2023-02-04T05:36:55;100273.72;;;-1.61;94.33
74578;BME280;63173;49.086;33.418;2023-02-04T05:39:21;100269.38;;;-1.55;93.04
74578;BME280;63173;49.086;33.418;2023-02-04T05:41:46;100279.44;;;-1.57;93.63
74578;BME280;63173;49.086;33.418;2023-02-04T05:44:11;100275.31;;;-1.53;93.21
74578;BME280;63173;49.086;33.418;2023-02-04T05:46:37;100273.28;;;-1.58;92.70
74578;BME280;63173;49.086;33.418;2023-02-04T05:49:03;100277.75;;;-1.45;91.89
74578;BME280;63173;49.086;33.418;2023-02-04T05:51:29;100276.72;;;-1.44;91.25
74578;BME280;63173;49.086;33.418;2023-02-04T05:53:54;100282.06;;;-1.51;91.68
74578;BME280;63173;49.086;33.418;2023-02-04T05:56:19;100282.28;;;-1.46;91.64
74578;BME280;63173;49.086;33.418;2023-02-04T05:58:45;100282.22;;;-1.39;89.84
74578;BME280;63173;49.086;33.418;2023-02-04T06:01:11;100288.78;;;-1.29;89.85
74578;BME280;63173;49.086;33.418;2023-02-04T06:03:36;100288.38;;;-1.45;88.80
74578;BME280;63173;49.086;33.418;2023-02-04T06:06:02;100286.56;;;-1.38;89.21
74578;BME280;63173;49.086;33.418;2023-02-04T06:08:27;100297.00;;;-1.37;88.55
74578;BME280;63173;49.086;33.418;2023-02-04T06:10:52;100300.88;;;-1.39;88.05
74578;BME280;63173;49.086;33.418;2023-02-04T06:13:19;100295.91;;;-1.23;87.52
74578;BME280;63173;49.086;33.418;2023-02-04T06:15:44;100299.19;;;-1.21;87.21
74578;BME280;63173;49.086;33.418;2023-02-04T06:18:10;100298.97;;;-1.19;87.35
74578;BME280;63173;49.086;33.418;2023-02-04T06:20:35;100291.84;;;-1.25;86.98
74578;BME280;63173;49.086;33.418;2023-02-04T06:23:00;100292.56;;;-1.12;87.82
74578;BME280;63173;49.086;33.418;2023-02-04T06:25:26;100291.56;;;-1.11;87.22
74578;BME280;63173;49.086;33.418;2023-02-04T06:27:51;100289.47;;;-1.02;86.64
74578;BME280;63173;49.086;33.418;2023-02-04T06:30:17;100294.59;;;-1.01;86.83
74578;BME280;63173;49.086;33.418;2023-02-04T06:32:43;100296.84;;;-0.98;86.74
74578;BME280;63173;49.086;33.418;2023-02-04T06:35:09;100291.06;;;-0.95;87.17
74578;BME280;63173;49.086;33.418;2023-02-04T06:37:35;100286.41;;;-0.99;86.59
74578;BME280;63173;49.086;33.418;2023-02-04T06:40:00;100293.38;;;-1.05;85.47
74578;BME280;63173;49.086;33.418;2023-02-04T06:42:26;100291.69;;;-0.93;86.25
74578;BME280;63173;49.086;33.418;2023-02-04T06:44:51;100296.63;;;-0.96;85.23
74578;BME280;63173;49.086;33.418;2023-02-04T06:47:17;100296.38;;;-0.88;85.80
74578;BME280;63173;49.086;33.418;2023-02-04T06:49:42;100300.72;;;-0.93;85.32
74578;BME280;63173;49.086;33.418;2023-02-04T06:52:08;100304.31;;;-0.75;84.50
74578;BME280;63173;49.086;33.418;2023-02-04T06:54:34;100312.94;;;-0.79;84.54
74578;BME280;63173;49.086;33.418;2023-02-04T06:57:00;100303.38;;;-0.56;84.50
74578;BME280;63173;49.086;33.418;2023-02-04T06:59:38;100309.72;;;-0.50;83.97
74578;BME280;63173;49.086;33.418;2023-02-04T07:02:05;100309.00;;;-0.33;85.55
74578;BME280;63173;49.086;33.418;2023-02-04T07:04:31;100307.28;;;-0.52;82.88
74578;BME280;63173;49.086;33.418;2023-02-04T07:06:57;100317.25;;;-0.41;83.68
74578;BME280;63173;49.086;33.418;2023-02-04T07:09:22;100312.03;;;-0.60;82.89
74578;BME280;63173;49.086;33.418;2023-02-04T07:11:47;100319.84;;;-0.65;84.13
74578;BME280;63173;49.086;33.418;2023-02-04T07:14:13;100331.66;;;-0.48;83.80
74578;BME280;63173;49.086;33.418;2023-02-04T07:16:38;100327.38;;;-0.49;83.35
74578;BME280;63173;49.086;33.418;2023-02-04T07:19:04;100329.53;;;-0.71;82.89
74578;BME280;63173;49.086;33.418;2023-02-04T07:21:29;100338.75;;;-0.67;83.63
74578;BME280;63173;49.086;33.418;2023-02-04T07:23:55;100344.00;;;-0.54;83.74
74578;BME280;63173;49.086;33.418;2023-02-04T07:26:20;100334.72;;;-0.45;84.24
74578;BME280;63173;49.086;33.418;2023-02-04T07:28:46;100340.91;;;-0.51;84.34
74578;BME280;63173;49.086;33.418;2023-02-04T07:31:12;100335.72;;;-0.39;83.97
74578;BME280;63173;49.086;33.418;2023-02-04T07:33:37;100340.22;;;-0.09;83.16
74578;BME280;63173;49.086;33.418;2023-02-04T07:36:03;100339.66;;;0.14;82.40
74578;BME280;63173;49.086;33.418;2023-02-04T07:38:28;100331.41;;;-0.09;81.28
74578;BME280;63173;49.086;33.418;2023-02-04T07:40:54;100340.63;;;-0.05;81.42
74578;BME280;63173;49.086;33.418;2023-02-04T07:43:19;100341.22;;;-0.03;81.07
74578;BME280;63173;49.086;33.418;2023-02-04T07:45:44;100344.53;;;-0.08;81.63
74578;BME280;63173;49.086;33.418;2023-02-04T07:48:10;100339.13;;;0.06;81.70
74578;BME280;63173;49.086;33.418;2023-02-04T07:50:35;100328.22;;;0.07;81.25
74578;BME280;63173;49.086;33.418;2023-02-04T07:53:01;100338.19;;;-0.13;81.58
74578;BME280;63173;49.086;33.418;2023-02-04T07:55:26;100328.28;;;-0.31;82.16
74578;BME280;63173;49.086;33.418;2023-02-04T07:57:53;100338.97;;;-0.31;82.65
74578;BME280;63173;49.086;33.418;2023-02-04T08:00:18;100338.78;;;-0.05;81.86
74578;BME280;63173;49.086;33.418;2023-02-04T08:02:44;100337.94;;;0.20;82.45
74578;BME280;63173;49.086;33.418;2023-02-04T08:05:09;100345.59;;;0.16;81.57
74578;BME280;63173;49.086;33.418;2023-02-04T08:07:35;100339.41;;;0.16;80.84
74578;BME280;63173;49.086;33.418;2023-02-04T08:10:01;100344.34;;;0.43;81.72
74578;BME280;63173;49.086;33.418;2023-02-04T08:12:27;100349.78;;;0.55;81.13
74578;BME280;63173;49.086;33.418;2023-02-04T08:14:52;100347.44;;;0.83;81.53
74578;BME280;63173;49.086;33.418;2023-02-04T08:17:18;100357.09;;;1.02;81.01
74578;BME280;63173;49.086;33.418;2023-02-04T08:19:43;100358.16;;;0.58;82.13
74578;BME280;63173;49.086;33.418;2023-02-04T08:22:08;100358.78;;;0.78;81.31
74578;BME280;63173;49.086;33.418;2023-02-04T08:24:35;100359.97;;;0.82;81.74
74578;BME280;63173;49.086;33.418;2023-02-04T08:27:01;100372.50;;;0.82;81.20
74578;BME280;63173;49.086;33.418;2023-02-04T08:29:26;100366.78;;;0.78;81.96
74578;BME280;63173;49.086;33.418;2023-02-04T08:31:51;100372.00;;;0.73;82.23
74578;BME280;63173;49.086;33.418;2023-02-04T08:34:17;100364.44;;;0.88;82.65
74578;BME280;63173;49.086;33.418;2023-02-04T08:36:42;100370.06;;;0.80;82.93
74578;BME280;63173;49.086;33.418;2023-02-04T08:39:09;100372.59;;;0.93;81.59
74578;BME280;63173;49.086;33.418;2023-02-04T08:41:35;100376.38;;;0.86;81.27
74578;BME280;63173;49.086;33.418;2023-02-04T08:44:00;100373.56;;;0.99;81.95
74578;BME280;63173;49.086;33.418;2023-02-04T08:46:26;100377.66;;;0.59;80.80
74578;BME280;63173;49.086;33.418;2023-02-04T08:48:51;100385.31;;;0.55;82.50
74578;BME280;63173;49.086;33.418;2023-02-04T08:51:17;100376.16;;;0.69;81.86
74578;BME280;63173;49.086;33.418;2023-02-04T08:53:43;100381.72;;;0.86;80.52
74578;BME280;63173;49.086;33.418;2023-02-04T08:56:09;100376.75;;;0.71;81.33
74578;BME280;63173;49.086;33.418;2023-02-04T08:58:35;100389.47;;;0.94;81.74
74578;BME280;63173;49.086;33.418;2023-02-04T09:01:00;100387.31;;;1.21;80.40
74578;BME280;63173;49.086;33.418;2023-02-04T09:03:26;100374.97;;;1.02;80.61
74578;BME280;63173;49.086;33.418;2023-02-04T09:05:51;100376.94;;;1.42;81.10
74578;BME280;63173;49.086;33.418;2023-02-04T09:08:17;100376.31;;;1.29;80.40
74578;BME280;63173;49.086;33.418;2023-02-04T09:10:42;100373.72;;;1.22;81.57
74578;BME280;63173;49.086;33.418;2023-02-04T09:13:07;100374.59;;;1.16;81.85
74578;BME280;63173;49.086;33.418;2023-02-04T09:15:36;100373.06;;;0.90;83.22
74578;BME280;63173;49.086;33.418;2023-02-04T09:18:01;100371.06;;;0.61;83.27
74578;BME280;63173;49.086;33.418;2023-02-04T09:20:36;100374.00;;;0.78;83.77
74578;BME280;63173;49.086;33.418;2023-02-04T09:23:03;100360.78;;;0.83;84.14
74578;BME280;63173;49.086;33.418;2023-02-04T09:25:31;100357.47;;;0.63;84.40
74578;BME280;63173;49.086;33.418;2023-02-04T09:27:56;100364.25;;;0.65;84.46
74578;BME280;63173;49.086;33.418;2023-02-04T09:30:21;100365.97;;;0.78;84.74
74578;BME280;63173;49.086;33.418;2023-02-04T09:32:47;100356.09;;;0.78;85.03
74578;BME280;63173;49.086;33.418;2023-02-04T09:35:12;100363.75;;;0.75;84.35
74578;BME280;63173;49.086;33.418;2023-02-04T09:37:38;100355.44;;;0.83;84.58
74578;BME280;63173;49.086;33.418;2023-02-04T09:40:03;100367.84;;;0.95;84.76
74578;BME280;63173;49.086;33.418;2023-02-04T09:42:29;100365.47;;;0.87;84.70
74578;BME280;63173;49.086;33.418;2023-02-04T09:44:54;100370.13;;;1.10;85.02
74578;BME280;63173;49.086;33.418;2023-02-04T09:47:22;100371.50;;;1.01;84.79
74578;BME280;63173;49.086;33.418;2023-02-04T09:49:49;100368.00;;;1.01;84.25
74578;BME280;63173;49.086;33.418;2023-02-04T09:52:16;100372.16;;;1.15;84.80
74578;BME280;63173;49.086;33.418;2023-02-04T09:54:43;100370.88;;;1.35;84.58
74578;BME280;63173;49.086;33.418;2023-02-04T09:57:27;100380.19;;;1.15;83.88
74578;BME280;63173;49.086;33.418;2023-02-04T09:59:52;100373.13;;;1.02;84.37
74578;BME280;63173;49.086;33.418;2023-02-04T10:02:25;100374.53;;;1.05;84.50
74578;BME280;63173;49.086;33.418;2023-02-04T10:04:54;100372.53;;;1.00;84.08
74578;BME280;63173;49.086;33.418;2023-02-04T10:07:21;100375.34;;;1.05;83.63
74578;BME280;63173;49.086;33.418;2023-02-04T10:09:50;100369.47;;;1.33;83.69
74578;BME280;63173;49.086;33.418;2023-02-04T10:12:16;100378.25;;;1.22;83.81
74578;BME280;63173;49.086;33.418;2023-02-04T10:14:42;100369.25;;;1.34;84.44
74578;BME280;63173;49.086;33.418;2023-02-04T10:17:09;100374.53;;;1.23;84.37
74578;BME280;63173;49.086;33.418;2023-02-04T10:19:35;100372.78;;;0.74;84.50
74578;BME280;63173;49.086;33.418;2023-02-04T10:22:02;100370.53;;;0.77;85.65
74578;BME280;63173;49.086;33.418;2023-02-04T10:24:34;100371.72;;;1.00;84.25
74578;BME280;63173;49.086;33.418;2023-02-04T10:27:08;100368.59;;;1.03;84.03
74578;BME280;63173;49.086;33.418;2023-02-04T10:29:33;100368.38;;;1.22;83.70
74578;BME280;63173;49.086;33.418;2023-02-04T10:31:59;100366.22;;;0.94;83.78
74578;BME280;63173;49.086;33.418;2023-02-04T10:34:36;100374.91;;;0.90;84.46
74578;BME280;63173;49.086;33.418;2023-02-04T10:37:20;100376.25;;;0.99;84.10
74578;BME280;63173;49.086;33.418;2023-02-04T10:39:46;100371.41;;;0.89;84.69
74578;BME280;63173;49.086;33.418;2023-02-04T10:42:24;100377.16;;;1.11;83.78
74578;BME280;63173;49.086;33.418;2023-02-04T10:44:51;100380.84;;;1.28;83.99
74578;BME280;63173;49.086;33.418;2023-02-04T10:47:22;100371.09;;;1.16;83.25
74578;BME280;63173;49.086;33.418;2023-02-04T10:50:06;100371.56;;;0.94;83.43
74578;BME280;63173;49.086;33.418;2023-02-04T10:52:41;100373.94;;;1.03;83.92
74578;BME280;63173;49.086;33.418;2023-02-04T10:55:12;100380.47;;;0.88;83.58
74578;BME280;63173;49.086;33.418;2023-02-04T10:57:40;100377.28;;;0.98;84.04
74578;BME280;63173;49.086;33.418;2023-02-04T11:00:17;100386.34;;;1.15;83.79
74578;BME280;63173;49.086;33.418;2023-02-04T11:03:02;100387.47;;;1.26;83.16
74578;BME280;63173;49.086;33.418;2023-02-04T11:05:31;100388.66;;;1.12;84.18
74578;BME280;63173;49.086;33.418;2023-02-04T11:07:57;100396.66;;;0.93;84.28
74578;BME280;63173;49.086;33.418;2023-02-04T11:10:28;100398.84;;;0.60;85.10
74578;BME280;63173;49.086;33.418;2023-02-04T11:18:08;100404.53;;;0.88;84.36
74578;BME280;63173;49.086;33.418;2023-02-04T11:20:34;100394.06;;;1.05;84.54
74578;BME280;63173;49.086;33.418;2023-02-04T11:23:36;100397.13;;;0.90;84.42
74578;BME280;63173;49.086;33.418;2023-02-04T11:26:16;100397.22;;;0.59;84.47
74578;BME280;63173;49.086;33.418;2023-02-04T11:33:43;100404.69;;;0.75;84.43
74578;BME280;63173;49.086;33.418;2023-02-04T11:36:11;100400.41;;;0.92;85.02
74578;BME280;63173;49.086;33.418;2023-02-04T11:38:43;100396.66;;;0.93;84.77
74578;BME280;63173;49.086;33.418;2023-02-04T11:41:24;100404.69;;;0.75;84.97
74578;BME280;63173;49.086;33.418;2023-02-04T11:43:52;100407.13;;;0.77;84.08
74578;BME280;63173;49.086;33.418;2023-02-04T11:46:18;100401.00;;;0.94;84.09
74578;BME280;63173;49.086;33.418;2023-02-04T11:48:44;100400.25;;;1.06;83.37
74578;BME280;63173;49.086;33.418;2023-02-04T11:51:15;100404.22;;;1.99;81.45
74578;BME280;63173;49.086;33.418;2023-02-04T11:53:42;100403.84;;;1.65;81.21
74578;BME280;63173;49.086;33.418;2023-02-04T11:56:34;100399.06;;;1.20;81.96
74578;BME280;63173;49.086;33.418;2023-02-04T11:58:59;100411.50;;;0.89;82.30
74578;BME280;63173;49.086;33.418;2023-02-04T12:01:30;100416.22;;;1.12;83.14
74578;BME280;63173;49.086;33.418;2023-02-04T12:04:03;100417.84;;;1.31;83.24
74578;BME280;63173;49.086;33.418;2023-02-04T12:06:31;100412.59;;;1.25;81.59
74578;BME280;63173;49.086;33.418;2023-02-04T12:11:32;100412.59;;;1.25;82.77
74578;BME280;63173;49.086;33.418;2023-02-04T12:14:07;100413.03;;;1.04;83.44
74578;BME280;63173;49.086;33.418;2023-02-04T12:16:49;100412.66;;;1.00;83.82
74578;BME280;63173;49.086;33.418;2023-02-04T12:19:18;100415.88;;;0.84;83.19
74578;BME280;63173;49.086;33.418;2023-02-04T12:21:43;100420.25;;;0.60;84.10
74578;BME280;63173;49.086;33.418;2023-02-04T12:24:09;100422.50;;;0.57;84.78
74578;BME280;63173;49.086;33.418;2023-02-04T12:26:35;100422.63;;;0.68;84.03
74578;BME280;63173;49.086;33.418;2023-02-04T12:29:00;100426.78;;;0.40;84.57
74578;BME280;63173;49.086;33.418;2023-02-04T12:31:31;100428.50;;;0.28;86.38
74578;BME280;63173;49.086;33.418;2023-02-04T12:33:58;100439.09;;;0.41;86.28
74578;BME280;63173;49.086;33.418;2023-02-04T12:36:24;100434.13;;;0.44;86.98
74578;BME280;63173;49.086;33.418;2023-02-04T12:38:55;100440.19;;;0.33;87.26
74578;BME280;63173;49.086;33.418;2023-02-04T12:41:22;100446.22;;;0.22;87.57
74578;BME280;63173;49.086;33.418;2023-02-04T12:43:48;100451.31;;;0.30;88.01
74578;BME280;63173;49.086;33.418;2023-02-04T12:46:15;100445.38;;;0.28;88.04
74578;BME280;63173;49.086;33.418;2023-02-04T12:48:40;100463.25;;;0.28;87.45
74578;BME280;63173;49.086;33.418;2023-02-04T12:51:06;100457.75;;;0.23;87.51
74578;BME280;63173;49.086;33.418;2023-02-04T12:53:32;100455.91;;;0.17;87.96